Time;durP1;ratioP1;P1;durP2;ratioP2;P2;SDS_P1;SDS_P2;PMS_P1;PMS_P2;Temp;Humidity;BMP_temperature;BMP_pressure;BME280_temperature;BME280_humidity;BME280_pressure;Samples;Min_cycle;Max_cycle;Signal;HPM_P1;HPM_P2
2022/04/19 00:00:57;;;;;;;2.55;1.88;;;12.80;47.50;;;;;;4871123;29;20020;-83
2022/04/19 00:03:23;;;;;;;3.13;2.00;;;12.80;47.60;;;;;;4898074;29;20231;-83
2022/04/19 00:05:48;;;;;;;2.87;1.77;;;12.80;47.80;;;;;;4895844;29;20115;-83
2022/04/19 00:08:16;;;;;;;3.08;1.77;;;12.80;47.80;;;;;;4887243;29;20052;-83
2022/04/19 00:10:42;;;;;;;3.05;1.80;;;12.70;48.00;;;;;;4913831;29;20035;-83
2022/04/19 00:13:10;;;;;;;2.77;1.87;;;12.70;48.00;;;;;;4928863;28;20028;-83
2022/04/19 00:15:38;;;;;;;3.15;2.17;;;12.70;48.30;;;;;;4900309;29;20232;-83
2022/04/19 00:18:05;;;;;;;2.75;2.00;;;12.70;48.30;;;;;;4927803;28;20027;-83
2022/04/19 00:20:35;;;;;;;3.08;2.15;;;12.70;48.30;;;;;;4893641;29;20702;-83
2022/04/19 00:23:03;;;;;;;3.17;2.10;;;12.70;48.40;;;;;;4876874;29;20024;-83
2022/04/19 00:25:28;;;;;;;3.70;2.17;;;12.60;48.40;;;;;;4908995;29;20216;-83
2022/04/19 00:27:54;;;;;;;2.58;1.92;;;12.60;48.50;;;;;;4885489;29;20047;-83
2022/04/19 00:30:20;;;;;;;3.47;2.13;;;12.60;48.60;;;;;;4881533;29;25561;-83
2022/04/19 00:32:46;;;;;;;3.03;2.03;;;12.50;48.70;;;;;;4884862;29;20063;-83
2022/04/19 00:35:12;;;;;;;3.25;1.83;;;12.50;48.70;;;;;;4896397;29;20548;-83
2022/04/19 00:37:39;;;;;;;2.78;2.03;;;12.50;48.90;;;;;;4874563;29;20468;-83
2022/04/19 00:40:07;;;;;;;3.00;2.00;;;12.40;49.00;;;;;;4897735;29;20024;-83
2022/04/19 00:42:36;;;;;;;3.30;2.17;;;12.40;49.10;;;;;;4896546;29;20275;-83
2022/04/19 00:45:05;;;;;;;4.80;2.40;;;12.40;49.10;;;;;;4881696;29;20568;-83
2022/04/19 00:47:32;;;;;;;3.08;2.33;;;12.40;49.40;;;;;;4885779;29;20250;-83
2022/04/19 00:50:01;;;;;;;3.42;2.25;;;12.30;49.20;;;;;;4901229;29;20464;-83
2022/04/19 00:52:30;;;;;;;3.83;2.40;;;12.30;49.30;;;;;;4898337;29;20254;-83
2022/04/19 00:54:56;;;;;;;3.93;2.50;;;12.30;49.40;;;;;;4893096;29;20024;-83
2022/04/19 00:57:24;;;;;;;3.80;2.50;;;12.20;49.30;;;;;;4899071;29;20352;-83
2022/04/19 00:59:53;;;;;;;3.50;2.35;;;12.20;49.50;;;;;;4885765;29;20036;-83
2022/04/19 01:02:19;;;;;;;3.80;2.30;;;12.10;50.40;;;;;;4897048;29;20262;-81
2022/04/19 01:04:45;;;;;;;4.03;2.42;;;12.10;49.60;;;;;;4916355;29;20219;-82
2022/04/19 01:07:11;;;;;;;3.38;2.60;;;12.00;49.60;;;;;;4891851;29;20651;-81
2022/04/19 01:09:37;;;;;;;5.07;2.73;;;11.90;49.70;;;;;;4871042;29;20032;-81
2022/04/19 01:14:50;;;;;;;4.30;2.80;;;11.80;50.20;;;;;;4900915;29;20397;-81
2022/04/19 01:17:16;;;;;;;3.72;2.50;;;11.80;50.10;;;;;;4882445;29;20042;-81
2022/04/19 01:19:42;;;;;;;4.15;2.90;;;11.80;50.20;;;;;;4901492;29;20106;-81
2022/04/19 01:22:12;;;;;;;4.10;2.60;;;11.80;50.20;;;;;;4893209;29;20062;-81
2022/04/19 01:24:39;;;;;;;4.32;2.60;;;11.70;50.40;;;;;;4891816;29;20497;-81
2022/04/19 01:27:05;;;;;;;4.22;2.60;;;11.70;50.50;;;;;;4907877;29;20039;-81
2022/04/19 01:29:33;;;;;;;3.75;2.50;;;11.60;50.50;;;;;;4914259;29;20179;-82
2022/04/19 01:32:02;;;;;;;3.73;2.73;;;11.60;50.60;;;;;;4883108;29;20060;-81
2022/04/19 01:34:28;;;;;;;4.45;2.95;;;11.60;50.90;;;;;;4880093;29;20393;-82
2022/04/19 01:36:53;;;;;;;5.18;3.10;;;11.60;50.80;;;;;;4900263;29;20036;-82
2022/04/19 01:40:16;;;;;;;3.90;2.57;;;11.60;50.80;;;;;;4881570;29;20729;-81
2022/04/19 01:42:09;;;;;;;4.03;2.75;;;11.50;50.80;;;;;;4924687;28;20350;-81
2022/04/19 01:44:35;;;;;;;4.68;2.88;;;11.50;51.30;;;;;;4898227;29;20736;-81
2022/04/19 01:47:07;;;;;;;4.03;2.40;;;11.40;50.90;;;;;;4898880;29;21509;-82
2022/04/19 01:49:36;;;;;;;4.43;2.95;;;11.40;51.40;;;;;;4881584;29;20032;-81
2022/04/19 01:52:03;;;;;;;4.18;2.83;;;11.40;51.00;;;;;;4900126;29;20462;-81
2022/04/19 01:54:29;;;;;;;5.70;3.10;;;11.30;51.10;;;;;;4889953;29;20278;-81
2022/04/19 01:56:55;;;;;;;4.60;3.15;;;11.30;51.30;;;;;;4891153;29;20055;-81
2022/04/19 01:59:21;;;;;;;4.43;3.00;;;11.20;51.30;;;;;;4904524;29;20467;-82
2022/04/19 02:01:48;;;;;;;4.20;2.90;;;11.20;51.40;;;;;;4901449;29;20146;-81
2022/04/19 02:04:15;;;;;;;5.22;3.42;;;11.20;51.30;;;;;;4905849;29;20074;-82
2022/04/19 02:06:41;;;;;;;5.70;3.45;;;11.20;51.60;;;;;;4882757;29;20430;-82
2022/04/19 02:09:07;;;;;;;4.80;3.17;;;11.10;51.50;;;;;;4896732;29;20115;-81
2022/04/19 02:11:32;;;;;;;5.90;3.13;;;11.10;51.50;;;;;;4892807;29;20039;-81
2022/04/19 02:13:59;;;;;;;4.75;2.78;;;11.00;51.70;;;;;;4902256;29;20107;-82
2022/04/19 02:16:25;;;;;;;5.45;3.47;;;11.00;51.80;;;;;;4907935;29;20218;-82
2022/04/19 02:18:50;;;;;;;5.50;3.23;;;10.90;51.80;;;;;;4904225;29;20048;-82
2022/04/19 02:21:16;;;;;;;4.97;3.03;;;10.90;51.80;;;;;;4880415;29;20051;-82
2022/04/19 02:23:42;;;;;;;5.20;3.50;;;10.80;51.90;;;;;;4885974;29;20564;-81
2022/04/19 02:26:08;;;;;;;5.72;3.20;;;10.80;52.10;;;;;;4873593;29;20056;-81
2022/04/19 02:28:34;;;;;;;4.97;3.20;;;10.80;52.10;;;;;;4895919;29;20059;-81
2022/04/19 02:31:00;;;;;;;4.40;2.97;;;10.80;52.20;;;;;;4902534;29;20051;-81
2022/04/19 02:33:25;;;;;;;5.40;3.17;;;10.70;52.10;;;;;;4902337;29;20025;-81
2022/04/19 02:35:52;;;;;;;5.30;3.20;;;10.70;52.20;;;;;;4880231;29;20107;-81
2022/04/19 02:38:18;;;;;;;4.53;3.33;;;10.60;52.20;;;;;;4899445;29;20039;-82
2022/04/19 02:40:44;;;;;;;5.47;3.05;;;10.60;52.20;;;;;;4897309;29;20082;-81
2022/04/19 02:43:09;;;;;;;5.10;3.20;;;10.60;52.30;;;;;;4892360;29;20091;-82
2022/04/19 02:45:35;;;;;;;4.72;3.05;;;10.50;52.50;;;;;;4900696;29;20095;-82
2022/04/19 02:48:05;;;;;;;5.33;3.13;;;10.50;52.40;;;;;;4917599;29;20028;-81
2022/04/19 02:50:41;;;;;;;5.55;3.60;;;10.50;52.60;;;;;;4901209;29;20182;-81
2022/04/19 02:53:07;;;;;;;4.97;3.03;;;10.40;52.90;;;;;;4881651;29;20039;-81
2022/04/19 02:55:33;;;;;;;5.65;3.50;;;10.40;52.60;;;;;;4918831;29;20412;-81
2022/04/19 02:57:58;;;;;;;4.90;3.10;;;10.30;52.50;;;;;;4885744;29;20040;-81
2022/04/19 03:00:24;;;;;;;4.97;3.13;;;10.30;52.60;;;;;;4900507;29;20338;-81
2022/04/19 03:02:51;;;;;;;6.13;3.13;;;10.20;52.80;;;;;;4914185;29;20041;-81
2022/04/19 03:05:18;;;;;;;4.93;3.20;;;10.20;52.90;;;;;;4899223;29;20433;-82
2022/04/19 03:07:44;;;;;;;4.72;3.30;;;10.20;53.00;;;;;;4900290;29;20043;-81
2022/04/19 03:10:10;;;;;;;6.13;4.07;;;10.10;53.00;;;;;;4900892;29;20028;-81
2022/04/19 03:12:36;;;;;;;6.33;3.53;;;10.10;53.10;;;;;;4894572;29;20020;-81
2022/04/19 03:15:01;;;;;;;4.35;2.97;;;10.00;53.10;;;;;;4890705;29;20083;-81
2022/04/19 03:17:27;;;;;;;5.17;3.43;;;10.00;53.20;;;;;;4912819;29;20119;-81
2022/04/19 03:19:53;;;;;;;5.38;3.70;;;9.90;53.10;;;;;;4905045;29;20040;-82
2022/04/19 03:22:19;;;;;;;5.60;3.42;;;9.90;53.10;;;;;;4911433;28;20032;-81
2022/04/19 03:27:41;;;;;;;5.43;3.50;;;9.80;53.40;;;;;;4896669;29;20440;-81
2022/04/19 03:30:14;;;;;;;5.28;3.25;;;9.80;53.50;;;;;;4907257;29;20107;-81
2022/04/19 03:32:43;;;;;;;6.50;3.97;;;9.70;53.50;;;;;;4900994;29;20511;-82
2022/04/19 03:35:10;;;;;;;5.73;3.67;;;9.70;54.00;;;;;;4916599;29;20060;-81
2022/04/19 03:37:36;;;;;;;6.53;4.10;;;9.60;53.70;;;;;;4901222;29;20340;-81
2022/04/19 03:40:02;;;;;;;7.07;4.22;;;9.60;53.80;;;;;;4882267;29;20039;-81
2022/04/19 03:42:28;;;;;;;6.25;3.63;;;9.50;53.90;;;;;;4892570;29;20749;-81
2022/04/19 03:44:54;;;;;;;6.07;3.57;;;9.50;54.00;;;;;;4909779;29;20501;-81
2022/04/19 03:47:20;;;;;;;6.65;4.25;;;9.40;54.20;;;;;;4894692;29;20498;-81
2022/04/19 03:49:46;;;;;;;6.55;4.35;;;9.40;54.20;;;;;;4934833;28;20026;-81
2022/04/19 03:52:12;;;;;;;6.50;3.97;;;9.40;55.10;;;;;;4898171;29;20512;-81
2022/04/19 03:54:37;;;;;;;5.93;3.70;;;9.40;54.40;;;;;;4900140;29;20275;-81
2022/04/19 03:57:05;;;;;;;6.17;3.50;;;9.30;54.40;;;;;;4881817;29;20497;-81
2022/04/19 03:59:31;;;;;;;5.60;3.70;;;9.30;54.70;;;;;;4869514;29;20279;-81
2022/04/19 04:01:58;;;;;;;7.07;3.65;;;9.30;54.70;;;;;;4902143;29;20525;-81
2022/04/19 04:04:26;;;;;;;7.60;3.72;;;9.30;54.70;;;;;;4898355;29;20524;-81
2022/04/19 04:06:52;;;;;;;7.00;3.72;;;9.30;54.70;;;;;;4894888;29;20572;-81
2022/04/19 04:09:17;;;;;;;6.97;3.90;;;9.20;54.70;;;;;;4881795;29;20028;-81
2022/04/19 04:11:43;;;;;;;6.88;4.05;;;9.20;54.70;;;;;;4917657;29;20040;-81
2022/04/19 04:14:08;;;;;;;6.07;3.73;;;9.20;54.70;;;;;;4896778;29;20036;-81
2022/04/19 04:16:34;;;;;;;6.40;4.00;;;9.10;54.70;;;;;;4902882;29;20329;-81
2022/04/19 04:19:00;;;;;;;5.53;3.40;;;9.10;54.70;;;;;;4898093;29;20047;-81
2022/04/19 04:21:25;;;;;;;5.67;3.50;;;9.10;54.70;;;;;;4898057;29;20266;-81
2022/04/19 04:23:51;;;;;;;6.78;3.50;;;9.00;54.70;;;;;;4898491;29;20100;-81
2022/04/19 04:26:16;;;;;;;6.80;3.80;;;9.00;54.80;;;;;;4883225;29;20431;-81
2022/04/19 04:28:42;;;;;;;6.20;3.70;;;9.00;54.80;;;;;;4898509;29;20031;-81
2022/04/19 04:31:07;;;;;;;6.15;4.00;;;8.90;54.80;;;;;;4864484;29;20713;-81
2022/04/19 04:33:33;;;;;;;5.63;3.73;;;8.90;54.80;;;;;;4882591;29;20155;-81
2022/04/19 04:35:59;;;;;;;5.50;3.60;;;8.90;54.80;;;;;;4898066;29;20107;-81
2022/04/19 04:38:24;;;;;;;5.83;3.70;;;8.80;54.80;;;;;;4894920;29;20932;-83
2022/04/19 04:40:51;;;;;;;5.45;3.58;;;8.80;55.10;;;;;;4886816;29;20054;-83
2022/04/19 04:43:16;;;;;;;5.73;3.43;;;8.80;55.10;;;;;;4876727;29;20051;-83
2022/04/19 04:45:42;;;;;;;5.88;3.70;;;8.70;55.10;;;;;;4892068;29;20040;-83
2022/04/19 04:50:52;;;;;;;6.82;4.28;;;8.70;55.50;;;;;;4900853;29;20099;-83
2022/04/19 04:53:17;;;;;;;7.27;4.00;;;8.60;55.50;;;;;;4875014;29;20463;-83
2022/04/19 04:55:43;;;;;;;6.20;4.10;;;8.60;55.70;;;;;;4901121;29;20548;-83
2022/04/19 04:58:12;;;;;;;7.20;4.63;;;8.60;55.80;;;;;;4894563;29;20040;-83
2022/04/19 05:00:37;;;;;;;5.60;3.72;;;8.60;56.30;;;;;;4898547;29;20470;-83
2022/04/19 05:03:03;;;;;;;6.87;4.30;;;8.50;56.00;;;;;;4864546;29;20306;-83
2022/04/19 05:05:29;;;;;;;8.93;4.60;;;8.60;56.30;;;;;;4877239;29;20292;-83
2022/04/19 05:07:56;;;;;;;6.95;3.92;;;8.50;56.60;;;;;;4888817;29;20243;-83
2022/04/19 05:10:21;;;;;;;7.18;3.55;;;8.50;56.60;;;;;;4902004;29;20135;-83
2022/04/19 05:12:47;;;;;;;5.80;3.87;;;8.50;56.60;;;;;;4872385;29;20475;-83
2022/04/19 05:15:13;;;;;;;7.28;3.97;;;8.60;56.60;;;;;;4898388;29;20365;-81
2022/04/19 05:17:38;;;;;;;7.13;3.93;;;8.60;56.70;;;;;;4894640;29;20032;-81
2022/04/19 05:20:05;;;;;;;5.63;3.50;;;8.60;56.80;;;;;;4900021;29;20413;-81
2022/04/19 05:22:31;;;;;;;5.78;3.50;;;8.60;56.80;;;;;;4915679;28;20035;-84
2022/04/19 05:24:57;;;;;;;4.85;3.42;;;8.70;56.90;;;;;;4898189;29;20036;-83
2022/04/19 05:27:22;;;;;;;5.50;3.63;;;8.70;56.80;;;;;;4880357;29;20092;-83
2022/04/19 05:29:48;;;;;;;6.88;3.75;;;8.70;56.80;;;;;;4904079;29;20035;-83
2022/04/19 05:32:14;;;;;;;33.17;14.40;;;8.70;56.70;;;;;;4879862;29;20337;-81
2022/04/19 05:34:40;;;;;;;35.10;13.30;;;8.70;56.80;;;;;;4917433;29;20036;-81
2022/04/19 05:37:05;;;;;;;26.30;11.73;;;8.80;57.00;;;;;;4883414;29;20071;-81
2022/04/19 05:39:31;;;;;;;27.88;12.48;;;8.80;57.10;;;;;;4894479;29;20028;-82
2022/04/19 05:41:57;;;;;;;19.93;8.57;;;8.80;57.20;;;;;;4914072;29;20471;-82
2022/04/19 05:44:22;;;;;;;17.73;7.75;;;8.80;57.30;;;;;;4878765;29;20339;-81
2022/04/19 05:46:48;;;;;;;14.67;6.83;;;8.80;57.30;;;;;;4900033;29;20032;-82
2022/04/19 05:49:14;;;;;;;12.23;6.68;;;8.90;57.40;;;;;;4892643;29;20318;-83
2022/04/19 05:51:42;;;;;;;12.45;5.90;;;8.90;57.50;;;;;;4900710;29;20445;-82
2022/04/19 05:54:07;;;;;;;10.57;5.80;;;8.90;57.70;;;;;;4879661;29;20064;-82
2022/04/19 05:56:33;;;;;;;9.70;5.63;;;9.00;57.80;;;;;;4901699;29;20040;-81
2022/04/19 05:58:59;;;;;;;10.10;5.60;;;9.10;58.00;;;;;;4888915;29;20036;-83
2022/04/19 06:01:24;;;;;;;10.50;5.87;;;9.20;58.30;;;;;;4903893;29;20967;-83
2022/04/19 06:06:34;;;;;;;9.30;5.63;;;9.40;58.50;;;;;;4892813;29;20298;-84
2022/04/19 06:09:00;;;;;;;9.68;5.55;;;9.50;58.60;;;;;;4869007;29;20044;-84
2022/04/19 06:11:26;;;;;;;9.13;5.30;;;9.60;58.70;;;;;;4904220;29;20257;-84
2022/04/19 06:13:51;;;;;;;9.20;5.38;;;9.70;58.80;;;;;;4895570;29;20042;-84
2022/04/19 06:16:17;;;;;;;9.73;5.33;;;9.90;59.10;;;;;;4877065;29;20144;-84
2022/04/19 06:18:43;;;;;;;7.55;5.18;;;10.00;59.20;;;;;;4907878;29;20095;-84
2022/04/19 06:21:08;;;;;;;7.90;4.60;;;10.10;59.30;;;;;;4919637;28;20481;-85
2022/04/19 06:23:34;;;;;;;6.13;3.90;;;10.30;59.40;;;;;;4899717;29;20292;-84
2022/04/19 06:26:01;;;;;;;7.45;4.13;;;10.50;59.40;;;;;;4890482;29;20516;-85
2022/04/19 06:28:27;;;;;;;7.60;4.57;;;10.60;59.50;;;;;;4900020;29;20107;-84
2022/04/19 06:30:53;;;;;;;6.47;4.75;;;10.80;59.50;;;;;;4890024;29;20120;-84
2022/04/19 06:33:19;;;;;;;10.57;4.75;;;11.00;59.70;;;;;;4915181;29;20120;-84
2022/04/19 06:35:44;;;;;;;7.03;4.47;;;11.10;59.50;;;;;;4860952;29;20790;-85
2022/04/19 06:38:10;;;;;;;8.35;4.90;;;11.30;59.50;;;;;;4882649;29;20032;-85
2022/04/19 06:40:36;;;;;;;8.27;4.23;;;11.50;59.70;;;;;;4886637;29;20095;-84
2022/04/19 06:43:02;;;;;;;7.03;4.43;;;11.70;59.80;;;;;;4913735;29;20056;-84
2022/04/19 06:45:28;;;;;;;5.27;3.83;;;11.90;59.80;;;;;;4905439;29;20485;-84
2022/04/19 06:47:58;;;;;;;6.00;4.18;;;12.10;59.60;;;;;;4915777;29;20064;-84
2022/04/19 06:50:24;;;;;;;6.45;4.18;;;12.30;59.80;;;;;;4870592;29;20400;-85
2022/04/19 06:52:51;;;;;;;5.93;3.90;;;12.60;59.70;;;;;;4873903;29;20158;-83
2022/04/19 06:55:16;;;;;;;5.93;4.17;;;12.80;59.70;;;;;;4866425;29;20249;-83
2022/04/19 06:57:42;;;;;;;5.75;4.20;;;13.10;59.10;;;;;;4890357;29;20106;-84
2022/04/19 07:00:08;;;;;;;5.90;4.20;;;13.30;58.50;;;;;;4892505;29;20144;-84
2022/04/19 07:02:34;;;;;;;5.78;4.25;;;13.60;57.90;;;;;;4886708;29;20024;-83
2022/04/19 07:04:59;;;;;;;7.93;4.35;;;13.80;57.50;;;;;;4886162;29;20040;-84
2022/04/19 07:07:25;;;;;;;6.03;4.20;;;14.00;57.10;;;;;;4906579;29;20588;-84
2022/04/19 07:09:51;;;;;;;7.38;4.18;;;14.20;56.90;;;;;;4879931;29;20555;-83
2022/04/19 07:12:19;;;;;;;6.90;4.47;;;14.30;56.60;;;;;;4892284;29;20646;-83
2022/04/19 07:14:44;;;;;;;7.18;4.78;;;14.50;56.40;;;;;;4899535;29;20040;-85
2022/04/19 07:17:10;;;;;;;8.05;4.10;;;14.70;56.60;;;;;;4868836;29;20638;-84
2022/04/19 07:27:49;;;;;;;6.63;4.80;;;15.90;57.00;;;;;;4881282;29;20032;-85
2022/04/19 07:30:16;;;;;;;7.07;4.93;;;16.20;56.70;;;;;;4906640;29;20036;-83
2022/04/19 07:32:42;;;;;;;7.93;5.15;;;16.50;56.80;;;;;;4887054;29;20028;-84
2022/04/19 07:35:08;;;;;;;7.47;5.10;;;16.80;56.90;;;;;;4881889;29;20266;-84
2022/04/19 07:37:34;;;;;;;6.57;4.93;;;17.20;57.20;;;;;;4891784;29;20401;-85
2022/04/19 07:40:00;;;;;;;7.88;5.10;;;17.60;57.80;;;;;;4897405;29;20528;-86
2022/04/19 07:42:25;;;;;;;8.40;4.90;;;18.00;58.20;;;;;;4899007;29;20052;-85
2022/04/19 07:44:51;;;;;;;8.30;5.40;;;18.50;58.20;;;;;;4882464;29;20051;-86
2022/04/19 07:47:18;;;;;;;8.23;4.93;;;19.10;58.40;;;;;;4913192;29;20616;-85
2022/04/19 07:49:43;;;;;;;7.78;4.85;;;19.60;58.50;;;;;;4882313;29;20039;-85
2022/04/19 07:52:10;;;;;;;6.40;4.80;;;20.10;58.00;;;;;;4862656;29;20032;-86
2022/04/19 07:54:36;;;;;;;7.27;5.10;;;20.70;57.80;;;;;;4916373;29;20062;-85
2022/04/19 07:57:02;;;;;;;6.18;4.45;;;21.30;57.40;;;;;;4895652;29;20689;-83
2022/04/19 07:59:28;;;;;;;6.38;4.75;;;21.80;56.70;;;;;;4891137;29;20239;-84
2022/04/19 08:01:53;;;;;;;6.50;4.67;;;22.40;55.70;;;;;;4881346;29;20041;-85
2022/04/19 08:04:20;;;;;;;6.47;4.90;;;22.80;54.50;;;;;;4865218;29;20688;-85
2022/04/19 08:06:46;;;;;;;6.18;4.50;;;23.30;53.60;;;;;;4906554;29;20028;-84
2022/04/19 08:09:11;;;;;;;5.60;4.80;;;23.60;52.60;;;;;;4890977;29;20039;-84
2022/04/19 08:11:37;;;;;;;6.13;4.70;;;23.90;51.80;;;;;;4930014;28;20028;-85
2022/04/19 08:14:03;;;;;;;5.97;4.50;;;24.20;51.40;;;;;;4905388;29;20083;-85
2022/04/19 08:16:28;;;;;;;4.97;3.95;;;24.50;50.40;;;;;;4881955;29;20036;-85
2022/04/19 08:18:54;;;;;;;6.63;4.07;;;24.80;49.50;;;;;;4901263;29;20425;-85
2022/04/19 08:21:20;;;;;;;5.95;4.13;;;25.00;49.20;;;;;;4872364;29;20027;-85
2022/04/19 08:23:45;;;;;;;5.37;3.77;;;25.20;47.60;;;;;;4886025;29;20107;-85
2022/04/19 08:26:11;;;;;;;5.50;3.70;;;25.40;47.00;;;;;;4890909;29;20385;-84
2022/04/19 08:28:37;;;;;;;4.80;3.50;;;25.70;46.80;;;;;;4869351;29;20628;-85
2022/04/19 08:31:03;;;;;;;5.32;3.33;;;25.90;46.00;;;;;;4899280;29;20253;-85
2022/04/19 08:33:28;;;;;;;6.60;3.77;;;26.20;45.70;;;;;;4879262;29;20032;-84
2022/04/19 08:35:54;;;;;;;6.68;3.67;;;26.40;44.80;;;;;;4882313;29;20082;-86
2022/04/19 08:38:20;;;;;;;4.93;3.43;;;26.70;44.70;;;;;;4868955;29;20645;-86
2022/04/19 08:40:47;;;;;;;5.88;3.88;;;27.00;43.60;;;;;;4899115;29;20020;-85
2022/04/19 08:43:13;;;;;;;5.55;3.50;;;27.20;42.70;;;;;;4871658;29;20060;-85
2022/04/19 08:45:39;;;;;;;5.20;4.03;;;27.40;42.40;;;;;;4874782;29;20047;-87
2022/04/19 08:48:09;;;;;;;5.35;3.47;;;27.60;41.90;;;;;;4886088;29;20028;-85
2022/04/19 08:50:35;;;;;;;4.33;3.47;;;27.80;41.20;;;;;;4884411;29;20682;-85
2022/04/19 08:58:30;;;;;;;4.13;3.38;;;28.50;40.10;;;;;;4893857;29;20229;-83
2022/04/19 09:00:55;;;;;;;5.00;3.23;;;28.70;39.60;;;;;;4882820;29;20048;-83
2022/04/19 09:03:21;;;;;;;5.13;3.85;;;28.90;39.00;;;;;;4892335;29;20036;-83
2022/04/19 09:05:51;;;;;;;6.23;3.20;;;29.10;38.80;;;;;;4883924;29;20032;-83
2022/04/19 09:08:18;;;;;;;4.35;3.17;;;29.20;37.00;;;;;;4889417;29;20255;-83
2022/04/19 09:10:44;;;;;;;5.43;3.50;;;29.40;37.30;;;;;;4894352;29;20454;-82
2022/04/19 09:13:22;;;;;;;4.35;3.47;;;29.50;36.50;;;;;;4896360;29;20039;-83
2022/04/19 09:15:48;;;;;;;5.23;3.40;;;29.60;34.30;;;;;;4891693;29;20024;-83
2022/04/19 09:18:31;;;;;;;5.60;3.33;;;29.70;35.00;;;;;;4900480;29;20059;-83
2022/04/19 09:20:58;;;;;;;4.65;3.17;;;29.70;32.90;;;;;;4888112;29;20059;-84
2022/04/19 09:23:25;;;;;;;5.85;3.33;;;29.80;34.60;;;;;;4890753;29;20386;-82
2022/04/19 09:25:53;;;;;;;3.90;2.90;;;30.00;34.30;;;;;;4910587;29;20040;-83
2022/04/19 09:28:23;;;;;;;3.63;2.83;;;30.10;33.70;;;;;;4912013;29;20036;-83
2022/04/19 09:30:52;;;;;;;4.07;3.15;;;30.20;32.40;;;;;;4894176;29;20402;-83
2022/04/19 09:33:21;;;;;;;4.60;2.90;;;30.30;33.10;;;;;;4904713;29;20241;-83
2022/04/19 09:36:04;;;;;;;3.58;2.78;;;30.40;32.80;;;;;;4896755;29;20028;-83
2022/04/19 09:38:39;;;;;;;3.50;2.88;;;30.50;31.30;;;;;;4903316;29;20135;-81
2022/04/19 09:41:13;;;;;;;3.67;2.77;;;30.60;31.50;;;;;;4892186;29;20375;-83
2022/04/19 09:43:39;;;;;;;4.13;3.20;;;30.60;30.50;;;;;;4912179;29;20209;-83
2022/04/19 09:46:05;;;;;;;5.75;3.15;;;30.60;31.00;;;;;;4914558;29;20352;-83
2022/04/19 09:48:36;;;;;;;4.40;2.92;;;30.70;30.60;;;;;;4892025;29;20150;-83
2022/04/19 09:51:10;;;;;;;4.83;3.27;;;30.70;30.40;;;;;;4897947;29;20029;-81
2022/04/19 09:53:49;;;;;;;4.05;3.17;;;30.70;29.80;;;;;;4917308;29;20131;-83
2022/04/19 09:56:19;;;;;;;5.07;3.60;;;30.80;29.60;;;;;;4881717;29;20067;-82
2022/04/19 09:58:47;;;;;;;4.18;3.13;;;30.90;29.40;;;;;;4912721;29;20076;-83
2022/04/19 10:09:37;;;;;;;4.25;3.35;;;30.80;28.60;;;;;;4886065;29;20624;-83
2022/04/19 10:12:07;;;;;;;4.72;3.20;;;30.80;27.80;;;;;;4920135;29;20038;-83
2022/04/19 10:14:35;;;;;;;4.40;3.10;;;30.80;28.50;;;;;;4897253;29;20123;-82
2022/04/19 10:17:03;;;;;;;4.20;3.30;;;30.80;28.50;;;;;;4899921;29;20054;-82
2022/04/19 10:19:30;;;;;;;5.53;3.38;;;30.80;28.30;;;;;;4889267;29;20141;-83
2022/04/19 10:21:58;;;;;;;4.20;2.97;;;30.80;28.10;;;;;;4894017;29;20036;-82
2022/04/19 10:24:27;;;;;;;4.75;3.03;;;30.80;28.30;;;;;;4887468;29;20036;-83
2022/04/19 10:26:53;;;;;;;4.40;3.20;;;31.00;28.40;;;;;;4898434;29;20036;-83
2022/04/19 10:29:30;;;;;;;4.13;3.30;;;31.10;28.40;;;;;;4907436;29;20279;-82
2022/04/19 10:32:01;;;;;;;4.70;3.67;;;31.30;27.80;;;;;;4917251;29;20478;-83
2022/04/19 10:34:29;;;;;;;5.30;3.20;;;31.40;27.50;;;;;;4900079;29;21861;-82
2022/04/19 10:36:57;;;;;;;5.30;3.58;;;31.60;27.60;;;;;;4904822;29;20043;-82
2022/04/19 10:39:25;;;;;;;3.30;2.70;;;31.70;27.30;;;;;;4888791;29;20131;-83
2022/04/19 10:41:52;;;;;;;3.90;3.10;;;31.90;27.30;;;;;;4895965;29;20661;-85
2022/04/19 10:44:23;;;;;;;3.67;2.88;;;32.00;26.60;;;;;;4889420;29;20032;-85
2022/04/19 10:47:03;;;;;;;4.93;3.40;;;32.00;26.30;;;;;;4902546;29;20402;-84
2022/04/19 10:49:29;;;;;;;3.88;2.80;;;32.10;26.40;;;;;;4890620;29;22617;-84
2022/04/19 10:52:01;;;;;;;3.40;2.60;;;32.10;26.60;;;;;;4903470;29;20537;-83
2022/04/19 10:55:03;;;;;;;3.53;2.75;;;32.20;26.20;;;;;;4889761;29;20622;-85
2022/04/19 11:00:34;;;;;;;3.33;2.40;;;32.10;25.00;;;;;;4894490;29;20524;-85
2022/04/19 11:03:09;;;;;;;3.53;2.33;;;32.10;25.70;;;;;;4902638;29;20033;-85
2022/04/19 11:05:46;;;;;;;4.13;2.60;;;32.10;25.50;;;;;;4889601;29;20409;-84
2022/04/19 11:08:24;;;;;;;3.08;2.47;;;32.10;24.70;;;;;;4885505;29;20040;-85
2022/04/19 11:10:50;;;;;;;3.33;2.30;;;32.10;24.80;;;;;;4904134;29;20036;-83
2022/04/19 11:13:17;;;;;;;3.72;2.50;;;32.20;25.70;;;;;;4907442;29;20706;-83
2022/04/19 11:15:42;;;;;;;2.93;2.43;;;32.30;25.80;;;;;;4894934;29;20051;-83
2022/04/19 11:18:25;;;;;;;4.63;3.00;;;32.40;25.50;;;;;;4901645;29;20339;-83
2022/04/19 11:20:57;;;;;;;3.72;2.78;;;32.50;24.20;;;;;;4891478;29;20040;-83
2022/04/19 11:23:24;;;;;;;4.75;2.85;;;32.50;24.80;;;;;;4885476;29;20827;-83
2022/04/19 11:25:51;;;;;;;3.17;2.53;;;32.60;24.90;;;;;;4905455;29;20493;-83
2022/04/19 11:28:19;;;;;;;3.78;2.90;;;32.70;25.00;;;;;;4891829;29;20036;-83
2022/04/19 11:31:04;;;;;;;2.90;2.60;;;32.70;25.00;;;;;;4905715;29;20039;-83
2022/04/19 11:33:33;;;;;;;4.28;2.83;;;32.80;24.90;;;;;;4898771;29;20524;-83
2022/04/19 11:36:05;;;;;;;3.42;2.88;;;32.90;24.30;;;;;;4891900;29;20064;-83
2022/04/19 11:38:36;;;;;;;3.93;2.73;;;32.90;24.30;;;;;;4897444;29;20377;-83
2022/04/19 11:46:45;;;;;;;3.85;2.75;;;33.20;24.70;;;;;;4888970;29;20044;-83
2022/04/19 11:49:23;;;;;;;4.43;2.90;;;33.40;24.10;;;;;;4911760;29;20658;-86
2022/04/19 11:51:54;;;;;;;4.30;2.83;;;33.50;23.50;;;;;;4891745;29;20063;-86
2022/04/19 11:54:25;;;;;;;3.60;2.67;;;33.50;23.70;;;;;;4885126;29;20407;-86
2022/04/19 11:56:52;;;;;;;3.53;2.70;;;33.60;24.30;;;;;;4902614;29;20656;-86
2022/04/19 11:59:23;;;;;;;3.42;2.35;;;33.80;24.20;;;;;;4893576;29;20493;-86
2022/04/19 12:01:49;;;;;;;3.83;2.60;;;33.80;23.90;;;;;;4901958;29;20032;-85
2022/04/19 12:04:15;;;;;;;2.90;2.30;;;33.90;23.90;;;;;;4892002;29;20038;-85
2022/04/19 12:06:56;;;;;;;7.25;2.97;;;33.90;23.70;;;;;;4889515;29;20036;-84
2022/04/19 12:09:22;;;;;;;3.47;2.70;;;34.00;22.80;;;;;;4896028;29;20220;-86
2022/04/19 12:11:49;;;;;;;4.07;2.67;;;34.00;23.60;;;;;;4879467;29;20067;-84
2022/04/19 12:14:25;;;;;;;4.82;2.67;;;34.10;23.70;;;;;;4901347;29;20461;-86
2022/04/19 12:17:00;;;;;;;3.30;2.60;;;34.20;23.00;;;;;;4897390;29;20048;-85
2022/04/19 12:19:39;;;;;;;3.25;2.83;;;34.30;23.10;;;;;;4891068;29;20040;-85
2022/04/19 12:22:25;;;;;;;3.90;2.63;;;34.50;22.80;;;;;;4888990;29;20028;-86
2022/04/19 12:24:58;;;;;;;4.30;2.70;;;34.50;23.00;;;;;;4901694;29;20441;-86
2022/04/19 12:27:25;;;;;;;3.33;2.50;;;34.50;23.00;;;;;;4887669;29;20055;-85
2022/04/19 12:30:14;;;;;;;4.00;2.67;;;34.60;23.20;;;;;;4901847;29;20102;-86
2022/04/19 12:32:57;;;;;;;3.03;2.33;;;34.60;22.50;;;;;;4898002;29;20127;-85
2022/04/19 12:35:37;;;;;;;3.58;2.70;;;34.70;23.00;;;;;;4892554;29;20115;-85
2022/04/19 12:38:07;;;;;;;3.15;2.55;;;34.70;22.40;;;;;;4888129;29;20032;-84
2022/04/19 12:40:33;;;;;;;3.90;2.70;;;34.70;22.60;;;;;;4901556;29;20678;-86
2022/04/19 12:43:00;;;;;;;4.00;2.83;;;34.70;22.40;;;;;;4886061;29;20063;-86
2022/04/19 12:45:31;;;;;;;3.50;2.58;;;34.70;22.70;;;;;;4892727;29;20673;-84
2022/04/19 12:47:58;;;;;;;3.53;2.42;;;34.60;22.00;;;;;;4933360;29;20043;-86
2022/04/19 12:50:24;;;;;;;3.33;2.65;;;34.60;22.70;;;;;;4888425;29;20044;-86
2022/04/19 12:52:50;;;;;;;3.57;2.90;;;34.70;22.50;;;;;;4898728;29;20032;-85
2022/04/19 12:55:26;;;;;;;3.50;2.50;;;34.70;22.40;;;;;;4886044;29;20112;-86
2022/04/19 12:58:08;;;;;;;4.10;2.60;;;34.70;22.50;;;;;;4887153;29;20036;-86
2022/04/19 13:00:35;;;;;;;3.40;2.47;;;34.70;21.90;;;;;;4902347;29;20070;-85
2022/04/19 13:03:01;;;;;;;3.22;2.53;;;34.70;22.20;;;;;;4893522;29;20100;-85
2022/04/19 13:12:16;;;;;;;3.65;2.80;;;34.70;22.50;;;;;;4890274;29;20814;-85
2022/04/19 13:13:41;;;;;;;3.58;2.58;;;34.80;22.30;;;;;;4888397;29;20408;-85
2022/04/19 13:16:07;;;;;;;5.47;2.75;;;34.80;22.30;;;;;;4885078;29;20043;-86
2022/04/19 13:18:33;;;;;;;3.07;2.27;;;34.80;21.90;;;;;;4903883;29;20055;-86
2022/04/19 13:20:59;;;;;;;3.22;2.35;;;34.80;22.20;;;;;;4906970;29;20039;-85
2022/04/19 13:23:26;;;;;;;3.10;2.17;;;34.80;22.00;;;;;;4901084;29;20334;-86
2022/04/19 13:25:53;;;;;;;2.65;2.20;;;34.80;21.70;;;;;;4887533;29;20044;-84
2022/04/19 13:28:19;;;;;;;3.45;2.35;;;34.80;21.80;;;;;;4882843;29;20111;-83
2022/04/19 13:30:45;;;;;;;3.80;2.27;;;34.80;21.50;;;;;;4907690;29;20021;-84
2022/04/19 13:33:10;;;;;;;3.95;2.70;;;34.70;21.40;;;;;;4885298;29;20043;-84
2022/04/19 13:35:36;;;;;;;3.13;2.40;;;34.60;21.50;;;;;;4906355;29;20032;-84
2022/04/19 13:40:46;;;;;;;4.30;2.80;;;34.40;21.30;;;;;;4898864;29;20040;-86